createdAt,value
2023-03-24T00:03:26.297Z,11.60
2023-03-24T00:08:48.449Z,11.50
2023-03-24T00:14:17.213Z,11.40
2023-03-24T00:19:40.165Z,11.10
2023-03-24T00:25:04.408Z,11.10
2023-03-24T00:30:30.396Z,11.10
2023-03-24T00:36:07.457Z,11.10
2023-03-24T00:42:04.228Z,11.20
2023-03-24T00:47:58.625Z,11.20
2023-03-24T00:53:36.572Z,11.30
2023-03-24T00:59:10.507Z,11.50
2023-03-24T01:04:56.390Z,11.70
2023-03-24T01:10:28.256Z,11.90
2023-03-24T01:16:03.491Z,11.90
2023-03-24T01:21:56.587Z,12.00
2023-03-24T01:27:40.663Z,12.00
2023-03-24T01:33:08.620Z,12.10
2023-03-24T01:38:49.761Z,12.00
2023-03-24T01:44:37.292Z,12.10
2023-03-24T01:50:03.026Z,12.10
2023-03-24T01:55:31.367Z,12.10
2023-03-24T02:00:54.391Z,12.00
2023-03-24T02:07:01.931Z,12.00
2023-03-24T02:12:29.632Z,12.00
2023-03-24T02:19:01.010Z,12.10
2023-03-24T02:24:49.290Z,12.20
2023-03-24T02:30:41.763Z,12.20
2023-03-24T02:36:52.284Z,12.30
2023-03-24T02:42:24.243Z,12.50
2023-03-24T02:48:35.796Z,12.50
2023-03-24T02:54:19.678Z,12.40
2023-03-24T03:00:01.880Z,12.40
2023-03-24T03:06:03.788Z,12.50
2023-03-24T03:11:28.379Z,12.30
2023-03-24T03:17:09.584Z,12.30
2023-03-24T03:23:00.500Z,12.30
2023-03-24T03:28:49.484Z,12.10
2023-03-24T03:34:21.068Z,12.10
2023-03-24T03:39:50.549Z,12.10
2023-03-24T03:45:14.346Z,12.00
2023-03-24T03:50:36.333Z,11.90
2023-03-24T03:56:26.356Z,11.90
2023-03-24T04:02:27.189Z,12.00
2023-03-24T04:08:08.440Z,11.90
2023-03-24T04:14:17.329Z,11.80
2023-03-24T04:20:14.619Z,11.80
2023-03-24T04:25:45.705Z,11.80
2023-03-24T04:31:58.490Z,11.70
2023-03-24T04:37:45.830Z,11.70
2023-03-24T04:43:39.376Z,11.80
2023-03-24T04:49:13.102Z,11.90
2023-03-24T04:54:38.371Z,11.90
2023-03-24T05:00:01.440Z,12.00
2023-03-24T05:05:39.984Z,12.00
2023-03-24T05:11:10.697Z,12.10
2023-03-24T05:17:11.509Z,12.00
2023-03-24T05:22:55.888Z,12.10
2023-03-24T05:28:40.282Z,12.10
2023-03-24T05:34:09.611Z,12.20
2023-03-24T05:39:46.765Z,12.10
2023-03-24T05:45:30.359Z,12.10
2023-03-24T05:51:23.761Z,12.20
2023-03-24T05:57:17.562Z,12.40
2023-03-24T06:03:30.634Z,12.50
2023-03-24T06:09:02.572Z,12.60
2023-03-24T06:14:30.456Z,12.80
2023-03-24T06:20:06.140Z,12.90
2023-03-24T06:25:37.430Z,13.20
2023-03-24T06:31:34.662Z,13.20
2023-03-24T06:37:05.336Z,13.40
2023-03-24T06:42:52.121Z,13.40
2023-03-24T06:48:34.493Z,13.50
2023-03-24T06:54:11.577Z,13.60
2023-03-24T06:59:34.837Z,13.70
2023-03-24T07:05:15.045Z,14.00
2023-03-24T07:10:41.559Z,14.10
2023-03-24T07:16:42.605Z,14.20
2023-03-24T07:22:50.955Z,14.40
2023-03-24T07:28:47.218Z,14.60
2023-03-24T07:34:34.288Z,14.70
2023-03-24T07:39:56.328Z,14.70
2023-03-24T07:45:19.436Z,14.80
2023-03-24T07:50:43.219Z,15.00
2023-03-24T07:56:47.584Z,15.10
2023-03-24T08:02:25.000Z,15.10
2023-03-24T08:08:15.565Z,14.90
2023-03-24T08:14:13.876Z,14.90
2023-03-24T08:20:00.788Z,14.80
2023-03-24T08:25:30.592Z,14.80
2023-03-24T08:31:08.655Z,14.80
2023-03-24T08:36:58.868Z,14.70
2023-03-24T08:43:06.330Z,14.70
2023-03-24T08:48:44.969Z,14.80
2023-03-24T08:54:13.567Z,14.60
2023-03-24T08:59:39.970Z,14.60
2023-03-24T09:05:14.197Z,14.90
2023-03-24T09:10:38.742Z,15.10
2023-03-24T09:16:45.432Z,15.20
2023-03-24T09:22:29.765Z,15.40
2023-03-24T09:28:10.770Z,15.50
2023-03-24T09:33:35.067Z,15.50
2023-03-24T09:39:11.632Z,15.70
2023-03-24T09:44:51.239Z,15.90
2023-03-24T09:50:34.346Z,15.60
2023-03-24T10:02:15.924Z,15.70
2023-03-24T10:07:54.246Z,15.90
2023-03-24T10:13:53.583Z,15.90
2023-03-24T10:19:29.211Z,15.80
2023-03-24T10:24:59.797Z,15.80
2023-03-24T10:30:37.327Z,15.70
2023-03-24T10:36:43.507Z,15.40
2023-03-24T10:42:37.586Z,15.40
2023-03-24T10:48:05.594Z,15.30
2023-03-24T10:53:43.996Z,15.20
2023-03-24T10:59:33.145Z,15.30
2023-03-24T11:05:27.162Z,15.30
2023-03-24T11:10:58.315Z,15.30
2023-03-24T11:16:49.226Z,15.30
2023-03-24T11:22:27.483Z,15.40
2023-03-24T11:28:10.204Z,15.40
2023-03-24T11:34:05.161Z,15.60
2023-03-24T11:39:34.130Z,15.60
2023-03-24T11:44:57.969Z,15.80
2023-03-24T11:50:24.649Z,15.70
2023-03-24T11:56:27.312Z,15.60
2023-03-24T12:02:17.601Z,15.10
2023-03-24T12:08:07.135Z,15.20
2023-03-24T12:14:02.266Z,15.00
2023-03-24T12:19:59.985Z,14.90
2023-03-24T12:25:58.283Z,14.80
2023-03-24T12:32:08.459Z,14.40
2023-03-24T12:38:07.817Z,14.50
2023-03-24T12:44:17.100Z,14.60
2023-03-24T12:49:54.512Z,14.80
2023-03-24T12:55:41.277Z,15.00
2023-03-24T13:01:22.100Z,14.90
2023-03-24T13:07:04.969Z,14.90
2023-03-24T13:12:51.700Z,14.90
2023-03-24T13:18:42.084Z,13.50
2023-03-24T13:24:10.562Z,11.30
2023-03-24T13:30:00.628Z,10.60
2023-03-24T13:35:34.980Z,9.90
2023-03-24T13:41:29.662Z,9.70
2023-03-24T13:47:26.876Z,9.60
2023-03-24T13:53:06.160Z,9.30
2023-03-24T13:58:47.926Z,9.50
2023-03-24T14:05:05.319Z,9.40
2023-03-24T14:10:49.096Z,9.50
2023-03-24T14:17:11.821Z,9.60
2023-03-24T14:23:07.669Z,9.60
2023-03-24T14:29:00.724Z,9.70
2023-03-24T14:34:27.925Z,9.80
2023-03-24T14:39:51.255Z,9.80
2023-03-24T14:45:43.027Z,9.90
2023-03-24T14:51:47.288Z,9.80
2023-03-24T14:57:34.187Z,9.90
2023-03-24T15:03:30.343Z,9.90
2023-03-24T15:08:58.824Z,9.90
2023-03-24T15:14:29.897Z,10.10
2023-03-24T15:19:54.770Z,10.10
2023-03-24T15:25:17.372Z,10.00
2023-03-24T15:30:38.859Z,10.10
2023-03-24T15:36:35.238Z,10.20
2023-03-24T15:42:31.807Z,10.30
2023-03-24T15:48:23.104Z,10.30
2023-03-24T15:54:08.403Z,10.20
2023-03-24T15:59:37.071Z,10.30
2023-03-24T16:05:14.909Z,10.30
2023-03-24T16:10:44.852Z,10.20
2023-03-24T16:16:27.186Z,10.30
2023-03-24T16:22:12.725Z,10.40
2023-03-24T16:27:45.320Z,10.30
2023-03-24T16:33:24.290Z,10.40
2023-03-24T16:38:50.083Z,10.40
2023-03-24T16:44:22.481Z,10.40
2023-03-24T16:49:44.142Z,10.40
2023-03-24T16:55:06.471Z,10.20
2023-03-24T17:00:32.166Z,10.20
2023-03-24T17:05:57.853Z,10.20
2023-03-24T17:11:54.098Z,10.20
2023-03-24T17:17:26.352Z,10.10
2023-03-24T17:23:12.242Z,10.00
2023-03-24T17:28:55.109Z,10.10
2023-03-24T17:34:25.164Z,9.80
2023-03-24T17:39:52.178Z,9.90
2023-03-24T17:45:16.638Z,9.90
2023-03-24T17:50:38.214Z,9.90
2023-03-24T17:56:31.284Z,9.80
2023-03-24T18:02:22.760Z,9.70
2023-03-24T18:07:47.843Z,9.60
2023-03-24T18:13:25.899Z,9.70
2023-03-24T18:18:59.176Z,9.60
2023-03-24T18:24:21.691Z,9.40
2023-03-24T18:29:43.120Z,9.50
2023-03-24T18:35:06.441Z,9.30
2023-03-24T18:40:28.878Z,9.30
2023-03-24T18:45:57.496Z,9.20
2023-03-24T18:51:38.645Z,9.30
2023-03-24T18:57:24.544Z,9.30
2023-03-24T19:03:09.170Z,9.20
2023-03-24T19:08:41.103Z,9.10
2023-03-24T19:14:10.895Z,9.00
2023-03-24T19:19:32.910Z,9.10
2023-03-24T19:24:54.878Z,9.20
2023-03-24T19:30:18.360Z,9.00
2023-03-24T19:35:40.239Z,8.90
2023-03-24T19:41:25.979Z,8.80
2023-03-24T19:47:06.755Z,8.70
2023-03-24T19:52:57.199Z,8.70
2023-03-24T19:58:31.779Z,8.60
2023-03-24T20:04:18.779Z,8.60
2023-03-24T20:10:05.074Z,8.60
2023-03-24T20:15:29.503Z,8.60
2023-03-24T20:21:25.413Z,8.60
2023-03-24T20:26:48.504Z,8.50
2023-03-24T20:32:24.386Z,8.40
2023-03-24T20:38:07.843Z,8.40
2023-03-24T20:43:53.237Z,8.40
2023-03-24T20:49:18.726Z,8.40
2023-03-24T20:54:42.773Z,8.30
2023-03-24T21:00:10.132Z,8.10
2023-03-24T21:05:50.981Z,8.10
2023-03-24T21:11:29.502Z,8.10
2023-03-24T21:17:23.167Z,8.10
2023-03-24T21:23:02.346Z,8.10
2023-03-24T21:28:41.100Z,8.00
2023-03-24T21:34:07.588Z,8.00
2023-03-24T21:39:30.552Z,7.90
2023-03-24T21:44:52.084Z,8.00
2023-03-24T21:50:19.071Z,7.90
2023-03-24T21:55:40.862Z,8.00
2023-03-24T22:01:02.370Z,7.90
2023-03-24T22:06:24.423Z,7.90
2023-03-24T22:12:08.145Z,7.80
2023-03-24T22:17:57.505Z,7.90
2023-03-24T22:23:36.004Z,8.00
2023-03-24T22:29:04.059Z,8.10
2023-03-24T22:34:26.251Z,8.20
2023-03-24T22:39:47.677Z,8.20
2023-03-24T22:45:09.339Z,8.30
2023-03-24T22:50:30.576Z,8.30
2023-03-24T22:55:59.455Z,8.30
2023-03-24T23:01:23.056Z,8.40
2023-03-24T23:06:57.154Z,8.40
2023-03-24T23:12:39.797Z,8.40
2023-03-24T23:18:13.110Z,8.40
2023-03-24T23:23:58.858Z,8.40
2023-03-24T23:29:22.741Z,8.50
2023-03-24T23:34:51.830Z,8.40
2023-03-24T23:40:15.744Z,8.40
2023-03-24T23:45:37.593Z,8.40
2023-03-24T23:51:23.735Z,8.50
2023-03-24T23:57:06.765Z,8.60
